Sedalia, Missouri
Current Conditions -  °F | °C
As of 4:53 PM on Wednesday 26 Nov 2014 (Local Time) from KDMO Reporting Station
Overcast Overcast  
Wind Chill: 27°   Ceiling: 1500
Heat Index: 37°   Visibility: 10mi
Dew Point: 31°   Wind: 18mph
Humidity: 79%   Direction: 290°WNW
Pressure: 30.09"   Gusts: 25mph
Location:  38.71°N, 93.23°W
Report Text: KDMO 262253Z AUTO 29016G22KT 10SM OVC015 03/M01 A3009 RMK AO2 PK WND 30030/2154 SLP195 T00281006
Loading
Personal Weather Stations






























Interactive Weather Map New forecast layout! Learn more

10-Day Weather Forecast

Advertisements
Track Severe Weather on mobile